createdAt,value
2022-11-09T00:00:02.959Z,11.10
2022-11-09T00:02:08.765Z,11.10
2022-11-09T00:04:13.199Z,11.00
2022-11-09T00:06:17.597Z,11.00
2022-11-09T00:08:21.737Z,10.90
2022-11-09T00:10:26.220Z,10.80
2022-11-09T00:12:30.441Z,10.70
2022-11-09T00:14:34.814Z,10.70
2022-11-09T00:16:40.420Z,10.60
2022-11-09T00:18:47.569Z,10.60
2022-11-09T00:20:51.770Z,10.60
2022-11-09T00:22:56.064Z,10.50
2022-11-09T00:25:00.195Z,10.40
2022-11-09T00:27:04.467Z,10.40
2022-11-09T00:29:08.918Z,10.30
2022-11-09T00:31:14.454Z,10.20
2022-11-09T00:33:20.380Z,10.30
2022-11-09T00:35:24.746Z,10.20
2022-11-09T00:37:31.367Z,10.20
2022-11-09T00:39:35.553Z,10.10
2022-11-09T00:41:39.766Z,10.00
2022-11-09T00:43:43.932Z,9.90
2022-11-09T00:45:49.212Z,9.90
2022-11-09T00:47:53.355Z,9.90
2022-11-09T00:49:59.078Z,9.90
2022-11-09T00:52:03.255Z,10.00
2022-11-09T00:54:08.350Z,10.00
2022-11-09T00:56:14.129Z,10.00
2022-11-09T00:58:19.028Z,10.00
2022-11-09T01:00:25.187Z,9.90
2022-11-09T01:02:32.453Z,9.80
2022-11-09T01:04:36.699Z,9.80
2022-11-09T01:06:42.344Z,9.50
2022-11-09T01:08:48.374Z,9.50
2022-11-09T01:10:53.125Z,9.50
2022-11-09T01:13:00.329Z,9.60
2022-11-09T01:15:04.952Z,9.50
2022-11-09T01:17:11.231Z,9.50
2022-11-09T01:19:15.504Z,9.50
2022-11-09T01:21:19.573Z,9.50
2022-11-09T01:23:25.327Z,9.50
2022-11-09T01:25:30.110Z,9.50
2022-11-09T01:27:34.874Z,9.50
2022-11-09T01:29:39.091Z,9.50
2022-11-09T01:31:43.804Z,9.30
2022-11-09T01:33:48.223Z,9.30
2022-11-09T01:35:52.399Z,9.30
2022-11-09T01:37:56.477Z,9.40
2022-11-09T01:40:02.026Z,9.40
2022-11-09T01:42:09.265Z,9.40
2022-11-09T01:44:15.161Z,9.40
2022-11-09T01:46:25.669Z,9.40
2022-11-09T01:48:37.089Z,9.40
2022-11-09T01:50:45.166Z,9.30
2022-11-09T01:52:50.920Z,9.30
2022-11-09T01:55:00.325Z,9.30
2022-11-09T01:57:11.613Z,9.20
2022-11-09T01:59:20.739Z,9.30
2022-11-09T02:01:25.104Z,9.30
2022-11-09T02:03:34.349Z,9.30
2022-11-09T02:05:40.745Z,9.40
2022-11-09T02:07:47.090Z,9.40
2022-11-09T02:09:57.016Z,9.40
2022-11-09T02:12:02.940Z,9.40
2022-11-09T02:14:09.334Z,9.40
2022-11-09T02:16:15.581Z,9.30
2022-11-09T02:18:20.286Z,9.30
2022-11-09T02:20:26.957Z,9.30
2022-11-09T02:22:31.175Z,9.20
2022-11-09T02:24:35.720Z,9.10
2022-11-09T02:26:47.338Z,9.10
2022-11-09T02:28:52.732Z,9.10
2022-11-09T02:30:58.726Z,9.10
2022-11-09T02:33:04.193Z,9.00
2022-11-09T02:35:09.092Z,9.10
2022-11-09T02:37:27.442Z,9.00
2022-11-09T02:39:32.180Z,8.90
2022-11-09T02:41:41.533Z,8.90
2022-11-09T02:43:45.909Z,8.90
2022-11-09T02:45:51.429Z,8.90
2022-11-09T02:47:56.949Z,8.90
2022-11-09T02:50:01.197Z,8.80
2022-11-09T02:52:07.031Z,8.80
2022-11-09T02:54:12.628Z,8.80
2022-11-09T02:56:17.926Z,8.80
2022-11-09T02:58:22.039Z,8.70
2022-11-09T03:00:27.602Z,8.70
2022-11-09T03:02:32.630Z,8.70
2022-11-09T03:04:37.223Z,8.70
2022-11-09T03:06:42.303Z,8.70
2022-11-09T03:08:50.397Z,8.70
2022-11-09T03:10:56.196Z,8.70
2022-11-09T03:13:00.660Z,8.70
2022-11-09T03:15:08.638Z,8.70
2022-11-09T03:17:16.860Z,8.70
2022-11-09T03:19:21.328Z,8.70
2022-11-09T03:21:29.421Z,8.70
2022-11-09T03:23:34.215Z,8.70
2022-11-09T03:25:39.874Z,8.80
2022-11-09T03:27:45.517Z,8.80
2022-11-09T03:29:50.552Z,8.80
2022-11-09T03:31:54.889Z,8.90
2022-11-09T03:33:59.284Z,8.90
2022-11-09T03:36:04.039Z,8.80
2022-11-09T03:38:08.407Z,8.70
2022-11-09T03:40:14.088Z,8.60
2022-11-09T03:42:19.298Z,8.40
2022-11-09T03:44:24.810Z,8.40
2022-11-09T03:46:29.006Z,8.40
2022-11-09T03:48:33.793Z,8.30
2022-11-09T03:50:40.498Z,8.30
2022-11-09T03:52:49.310Z,8.20
2022-11-09T03:54:53.479Z,8.20
2022-11-09T03:56:57.655Z,8.20
2022-11-09T03:59:04.155Z,8.10
2022-11-09T04:01:10.958Z,8.20
2022-11-09T04:03:15.244Z,8.30
2022-11-09T04:05:19.928Z,8.30
2022-11-09T04:07:24.138Z,8.40
2022-11-09T04:09:28.277Z,8.50
2022-11-09T04:11:32.513Z,8.60
2022-11-09T04:13:36.674Z,8.60
2022-11-09T04:15:41.053Z,8.70
2022-11-09T04:17:46.711Z,8.70
2022-11-09T04:19:50.965Z,8.80
2022-11-09T04:21:55.121Z,8.70
2022-11-09T04:23:59.270Z,8.80
2022-11-09T04:26:03.455Z,8.80
2022-11-09T04:28:08.923Z,8.80
2022-11-09T04:30:13.727Z,8.80
2022-11-09T04:32:17.921Z,8.80
2022-11-09T04:34:23.491Z,8.80
2022-11-09T04:36:27.783Z,8.80
2022-11-09T04:38:32.215Z,8.80
2022-11-09T04:40:37.537Z,8.80
2022-11-09T04:42:42.130Z,8.80
2022-11-09T04:44:46.237Z,8.80
2022-11-09T04:46:50.469Z,8.80
2022-11-09T04:48:54.639Z,8.80
2022-11-09T04:51:03.668Z,8.70
2022-11-09T04:53:09.590Z,8.70
2022-11-09T04:55:14.105Z,8.80
2022-11-09T04:57:18.514Z,8.80
2022-11-09T04:59:22.739Z,8.80
2022-11-09T05:01:26.926Z,8.80
2022-11-09T05:03:31.215Z,8.70
2022-11-09T05:05:36.742Z,8.70
2022-11-09T05:07:42.354Z,8.60
2022-11-09T05:09:46.706Z,8.70
2022-11-09T05:11:53.219Z,8.60
2022-11-09T05:13:57.435Z,8.70
2022-11-09T05:16:02.916Z,8.80
2022-11-09T05:18:09.144Z,8.70
2022-11-09T05:20:14.012Z,8.50
2022-11-09T05:22:35.617Z,8.50
2022-11-09T05:24:41.251Z,8.40
2022-11-09T05:26:50.610Z,8.50
2022-11-09T05:28:57.651Z,8.50
2022-11-09T05:31:03.538Z,8.50
2022-11-09T05:33:07.843Z,8.60
2022-11-09T05:35:12.112Z,8.50
2022-11-09T05:37:17.612Z,8.50
2022-11-09T05:39:21.903Z,8.50
2022-11-09T05:41:27.839Z,8.50
2022-11-09T05:43:32.037Z,8.60
2022-11-09T05:45:44.662Z,8.60
2022-11-09T05:47:49.530Z,8.60
2022-11-09T05:49:54.195Z,8.60
2022-11-09T05:51:58.920Z,8.60
2022-11-09T05:54:03.643Z,8.60
2022-11-09T05:56:10.678Z,8.60
2022-11-09T05:58:16.604Z,8.60
2022-11-09T06:00:21.837Z,8.60
2022-11-09T06:02:27.550Z,8.60
2022-11-09T06:04:31.771Z,8.60
2022-11-09T06:06:35.925Z,8.50
2022-11-09T06:08:40.289Z,8.50
2022-11-09T06:10:44.756Z,8.50
2022-11-09T06:12:52.074Z,8.40
2022-11-09T06:14:58.390Z,8.50
2022-11-09T06:17:02.604Z,8.50
2022-11-09T06:19:06.936Z,8.30
2022-11-09T06:21:11.869Z,8.30
2022-11-09T06:23:16.276Z,8.30
2022-11-09T06:25:20.582Z,8.30
2022-11-09T06:27:25.006Z,8.30
2022-11-09T06:29:29.593Z,8.30
2022-11-09T06:31:35.291Z,8.30
2022-11-09T06:33:39.689Z,8.30
2022-11-09T06:35:44.075Z,8.20
2022-11-09T06:37:48.197Z,8.30
2022-11-09T06:39:52.943Z,8.50
2022-11-09T06:41:57.287Z,8.60
2022-11-09T06:44:02.238Z,8.80
2022-11-09T06:46:06.938Z,9.00
2022-11-09T06:48:12.577Z,9.20
2022-11-09T06:50:16.955Z,9.30
2022-11-09T06:52:21.015Z,9.40
2022-11-09T06:54:25.170Z,9.60
2022-11-09T06:56:29.312Z,9.90
2022-11-09T06:58:33.792Z,10.20
2022-11-09T07:00:38.773Z,10.50
2022-11-09T07:02:44.281Z,10.70
2022-11-09T07:04:52.779Z,11.10
2022-11-09T07:06:57.386Z,11.10
2022-11-09T07:09:01.547Z,11.10
2022-11-09T07:11:06.966Z,11.20
2022-11-09T07:13:12.645Z,11.30
2022-11-09T07:15:18.570Z,11.40
2022-11-09T07:17:23.030Z,11.20
2022-11-09T07:19:27.351Z,11.30
2022-11-09T07:21:33.126Z,11.20
2022-11-09T07:23:40.075Z,11.20
2022-11-09T07:25:44.662Z,11.10
2022-11-09T07:27:49.123Z,10.80
2022-11-09T07:29:53.438Z,10.80
2022-11-09T07:31:57.984Z,10.90
2022-11-09T07:34:04.959Z,10.90
2022-11-09T07:36:10.784Z,11.10
2022-11-09T07:38:17.232Z,11.30
2022-11-09T07:40:21.927Z,11.20
2022-11-09T07:42:26.759Z,11.20
2022-11-09T07:44:32.096Z,11.10
2022-11-09T07:46:36.792Z,11.20
2022-11-09T07:48:41.046Z,11.20
2022-11-09T07:50:46.814Z,11.30
2022-11-09T07:52:51.965Z,11.40
2022-11-09T07:54:58.118Z,11.60
2022-11-09T07:57:02.290Z,11.60
2022-11-09T07:59:06.720Z,11.70
2022-11-09T08:01:11.904Z,11.60
2022-11-09T08:03:16.183Z,11.50
2022-11-09T08:05:20.788Z,11.50
2022-11-09T08:07:25.122Z,11.70
2022-11-09T08:09:30.100Z,12.00
2022-11-09T08:11:35.739Z,12.00
2022-11-09T08:13:39.788Z,11.80
2022-11-09T08:15:44.618Z,11.80
2022-11-09T08:17:48.750Z,11.80
2022-11-09T08:19:52.881Z,11.90
2022-11-09T08:21:57.975Z,11.80
2022-11-09T08:24:02.154Z,11.80
2022-11-09T08:26:07.861Z,12.00
2022-11-09T08:28:16.328Z,12.10
2022-11-09T08:30:22.427Z,12.50
2022-11-09T08:32:26.628Z,13.10
2022-11-09T08:34:30.825Z,13.10
2022-11-09T08:36:36.279Z,13.60
2022-11-09T08:38:41.164Z,13.90
2022-11-09T08:40:45.362Z,14.10
2022-11-09T08:42:49.553Z,14.20
2022-11-09T08:44:55.004Z,14.30
2022-11-09T08:46:59.089Z,14.40
2022-11-09T08:49:03.272Z,14.60
2022-11-09T08:51:07.575Z,14.70
2022-11-09T08:53:12.187Z,14.80
2022-11-09T08:55:16.405Z,14.80
2022-11-09T08:57:21.090Z,14.90
2022-11-09T08:59:25.364Z,14.80
2022-11-09T09:01:30.902Z,15.00
2022-11-09T09:03:35.093Z,14.90
2022-11-09T09:05:39.810Z,14.80
2022-11-09T09:07:44.434Z,14.90
2022-11-09T09:09:49.150Z,15.10
2022-11-09T09:11:53.427Z,15.10
2022-11-09T09:13:57.573Z,15.10
2022-11-09T09:16:11.244Z,15.10
2022-11-09T09:18:16.912Z,15.40
2022-11-09T09:20:21.043Z,15.50
2022-11-09T09:22:25.188Z,15.70
2022-11-09T09:24:29.444Z,15.90
2022-11-09T09:26:35.223Z,16.00
2022-11-09T09:28:39.505Z,16.20
2022-11-09T09:30:43.633Z,16.40
2022-11-09T09:32:47.877Z,16.40
2022-11-09T09:34:53.362Z,16.30
2022-11-09T09:36:57.542Z,16.00
2022-11-09T09:39:01.662Z,15.70
2022-11-09T09:41:08.115Z,15.60
2022-11-09T09:43:32.131Z,15.70
2022-11-09T09:45:41.365Z,15.50
2022-11-09T09:47:51.471Z,15.40
2022-11-09T09:50:01.627Z,15.30
2022-11-09T09:52:15.696Z,15.50
2022-11-09T09:54:22.857Z,15.80
2022-11-09T09:56:31.661Z,15.90
2022-11-09T09:58:39.086Z,15.80
2022-11-09T10:00:44.299Z,15.70
2022-11-09T10:02:49.608Z,15.80
2022-11-09T10:04:57.572Z,15.90
2022-11-09T10:07:08.941Z,15.90
2022-11-09T10:09:25.080Z,16.00
2022-11-09T10:11:38.095Z,16.00
2022-11-09T10:13:57.921Z,16.10
2022-11-09T10:16:11.257Z,16.10
2022-11-09T10:18:27.709Z,16.20
2022-11-09T10:20:53.255Z,16.40
2022-11-09T10:23:08.373Z,16.30
2022-11-09T10:25:32.088Z,16.30
2022-11-09T10:27:49.350Z,16.20
2022-11-09T10:29:53.595Z,16.20
2022-11-09T10:32:02.761Z,16.30
2022-11-09T10:34:18.342Z,16.50
2022-11-09T10:36:33.170Z,16.60
2022-11-09T10:38:43.377Z,16.60
2022-11-09T10:41:17.883Z,16.60
2022-11-09T10:43:40.463Z,16.80
2022-11-09T10:46:05.663Z,16.90
2022-11-09T10:48:34.029Z,17.00
2022-11-09T10:50:56.617Z,17.00
2022-11-09T10:53:22.773Z,17.20
2022-11-09T10:55:53.621Z,17.00
2022-11-09T10:58:26.615Z,16.70
2022-11-09T11:01:04.223Z,16.40
2022-11-09T11:03:27.806Z,16.20
2022-11-09T11:05:58.878Z,16.00
2022-11-09T11:08:25.689Z,16.00
2022-11-09T11:10:49.177Z,16.10
2022-11-09T11:13:25.702Z,16.20
2022-11-09T11:15:48.570Z,16.30
2022-11-09T11:18:20.719Z,16.40
2022-11-09T11:20:43.425Z,16.40
2022-11-09T11:23:14.321Z,16.40
2022-11-09T11:25:53.025Z,16.50
2022-11-09T11:28:23.116Z,16.60
2022-11-09T11:30:45.879Z,16.60
2022-11-09T11:33:16.096Z,16.80
2022-11-09T11:35:44.733Z,16.70
2022-11-09T11:38:20.002Z,16.60
2022-11-09T11:41:07.207Z,16.60
2022-11-09T11:43:43.724Z,16.80
2022-11-09T11:46:15.877Z,16.90
2022-11-09T11:49:08.789Z,16.90
2022-11-09T11:51:41.472Z,17.10
2022-11-09T11:54:15.073Z,17.20
2022-11-09T11:56:43.405Z,17.10
2022-11-09T11:59:26.807Z,16.90
2022-11-09T12:02:16.053Z,17.00
2022-11-09T12:05:20.878Z,17.10
2022-11-09T12:07:57.525Z,16.90
2022-11-09T12:10:31.785Z,16.90
2022-11-09T12:13:03.259Z,17.10
2022-11-09T12:15:37.494Z,17.10
2022-11-09T12:18:15.092Z,17.20
2022-11-09T12:20:44.654Z,17.30
2022-11-09T12:23:35.901Z,17.40
2022-11-09T12:26:14.825Z,17.20
2022-11-09T12:29:09.161Z,16.90
2022-11-09T12:31:44.410Z,17.00
2022-11-09T12:34:17.023Z,17.00
2022-11-09T12:36:44.122Z,17.00
2022-11-09T12:39:14.141Z,17.10
2022-11-09T12:41:39.900Z,17.30
2022-11-09T12:44:07.857Z,17.40
2022-11-09T12:46:36.412Z,17.40
2022-11-09T12:49:03.291Z,17.30
2022-11-09T12:51:26.419Z,17.20
2022-11-09T12:53:48.990Z,17.30
2022-11-09T12:56:18.303Z,17.50
2022-11-09T12:58:41.456Z,17.50
2022-11-09T13:01:07.521Z,17.50
2022-11-09T13:03:32.209Z,17.50
2022-11-09T13:06:17.991Z,17.40
2022-11-09T13:08:42.367Z,17.30
2022-11-09T13:11:23.407Z,17.10
2022-11-09T13:13:47.196Z,17.10
2022-11-09T13:16:34.737Z,17.10
2022-11-09T13:18:57.484Z,17.00
2022-11-09T13:21:39.219Z,17.00
2022-11-09T13:24:27.868Z,17.10
2022-11-09T13:26:59.363Z,17.20
2022-11-09T13:29:27.860Z,17.20
2022-11-09T13:32:31.877Z,17.10
2022-11-09T13:34:57.639Z,17.00
2022-11-09T13:37:47.133Z,16.90
2022-11-09T13:40:41.858Z,16.80
2022-11-09T13:43:07.494Z,16.90
2022-11-09T13:45:35.395Z,16.90
2022-11-09T13:47:58.123Z,17.00
2022-11-09T13:50:24.310Z,16.90
2022-11-09T13:52:51.111Z,16.90
2022-11-09T13:55:32.137Z,17.00
2022-11-09T13:57:56.935Z,16.90
2022-11-09T14:00:23.553Z,16.90
2022-11-09T14:02:54.993Z,16.80
2022-11-09T14:05:31.258Z,16.80
2022-11-09T14:07:56.045Z,16.70
2022-11-09T14:10:43.736Z,16.60
2022-11-09T14:13:32.970Z,16.60
2022-11-09T14:16:02.595Z,16.60
2022-11-09T14:18:38.290Z,16.50
2022-11-09T14:21:22.416Z,16.50
2022-11-09T14:23:45.890Z,16.50
2022-11-09T14:26:09.344Z,16.40
2022-11-09T14:28:34.935Z,16.40
2022-11-09T14:30:58.165Z,16.40
2022-11-09T14:33:24.576Z,16.30
2022-11-09T14:35:48.862Z,16.30
2022-11-09T14:38:21.761Z,16.20
2022-11-09T14:40:47.142Z,16.30
2022-11-09T14:43:28.579Z,16.20
2022-11-09T14:45:53.565Z,16.10
2022-11-09T14:48:19.893Z,16.10
2022-11-09T14:50:42.912Z,16.10
2022-11-09T14:53:07.343Z,16.10
2022-11-09T14:55:33.332Z,15.90
2022-11-09T14:57:57.619Z,15.90
2022-11-09T15:00:29.714Z,15.90
2022-11-09T15:02:52.767Z,16.00
2022-11-09T15:05:47.888Z,16.00
2022-11-09T15:08:20.216Z,15.90
2022-11-09T15:10:51.078Z,15.80
2022-11-09T15:13:14.175Z,15.80
2022-11-09T15:15:38.850Z,15.70
2022-11-09T15:18:03.561Z,15.70
2022-11-09T15:20:30.581Z,15.70
2022-11-09T15:22:55.683Z,15.70
2022-11-09T15:25:28.319Z,15.60
2022-11-09T15:28:19.286Z,15.40
2022-11-09T15:30:46.211Z,15.40
2022-11-09T15:33:25.633Z,15.40
2022-11-09T15:35:52.387Z,15.40
2022-11-09T15:38:37.703Z,15.40
2022-11-09T15:41:00.517Z,15.40
2022-11-09T15:43:25.184Z,15.40
2022-11-09T15:45:48.281Z,15.40
2022-11-09T15:48:11.347Z,15.30
2022-11-09T15:50:34.807Z,15.30
2022-11-09T15:52:57.390Z,15.30
2022-11-09T15:55:22.867Z,15.10
2022-11-09T15:57:46.349Z,15.20
2022-11-09T16:00:19.406Z,15.10
2022-11-09T16:02:43.620Z,15.00
2022-11-09T16:05:07.400Z,14.80
2022-11-09T16:07:30.314Z,14.70
2022-11-09T16:09:53.027Z,14.60
2022-11-09T16:12:16.966Z,14.50
2022-11-09T16:14:40.267Z,14.40
2022-11-09T16:17:05.604Z,14.40
2022-11-09T16:19:28.433Z,14.40
2022-11-09T16:21:53.482Z,14.30
2022-11-09T16:24:18.145Z,14.30
2022-11-09T16:26:40.902Z,14.30
2022-11-09T16:29:03.794Z,14.20
2022-11-09T16:31:48.144Z,14.20
2022-11-09T16:34:12.283Z,14.40
2022-11-09T16:36:38.881Z,14.30
2022-11-09T16:39:09.540Z,14.30
2022-11-09T16:41:32.562Z,14.20
2022-11-09T16:43:55.548Z,14.20
2022-11-09T16:46:23.451Z,14.10
2022-11-09T16:48:46.720Z,14.10
2022-11-09T16:51:11.284Z,14.00
2022-11-09T16:53:34.042Z,13.90
2022-11-09T16:55:57.189Z,13.70
2022-11-09T16:58:20.365Z,13.60
2022-11-09T17:01:09.680Z,13.50
2022-11-09T17:03:29.441Z,13.40
2022-11-09T17:05:52.398Z,13.40
2022-11-09T17:08:16.968Z,13.20
2022-11-09T17:10:43.660Z,13.20
2022-11-09T17:13:07.515Z,13.10
2022-11-09T17:15:29.900Z,13.10
2022-11-09T17:17:52.690Z,13.00
2022-11-09T17:20:16.453Z,13.00
2022-11-09T17:22:45.896Z,13.00
2022-11-09T17:25:16.159Z,13.00
2022-11-09T17:27:40.034Z,13.00
2022-11-09T17:30:03.452Z,12.90
2022-11-09T17:32:28.400Z,12.90
2022-11-09T17:34:51.441Z,12.90
2022-11-09T17:37:14.361Z,12.90
2022-11-09T17:39:37.090Z,12.90
2022-11-09T17:42:02.423Z,13.00
2022-11-09T17:44:25.065Z,13.00
2022-11-09T17:46:47.717Z,12.90
2022-11-09T17:49:10.898Z,13.00
2022-11-09T17:51:33.846Z,13.00
2022-11-09T17:53:57.545Z,12.90
2022-11-09T17:56:20.494Z,12.90
2022-11-09T17:58:46.292Z,12.90
2022-11-09T18:01:10.380Z,12.90
2022-11-09T18:03:33.713Z,12.90
2022-11-09T18:05:56.724Z,12.80
2022-11-09T18:08:20.979Z,12.80
2022-11-09T18:10:45.928Z,12.80
2022-11-09T18:13:09.668Z,12.80
2022-11-09T18:15:35.055Z,12.80
2022-11-09T18:17:57.892Z,12.80
2022-11-09T18:20:20.715Z,12.80
2022-11-09T18:22:43.404Z,12.70
2022-11-09T18:25:06.656Z,12.70
2022-11-09T18:27:30.684Z,12.70
2022-11-09T18:29:56.317Z,12.50
2022-11-09T18:32:20.400Z,12.30
2022-11-09T18:34:43.153Z,12.20
2022-11-09T18:37:07.277Z,12.10
2022-11-09T18:39:31.050Z,12.00
2022-11-09T18:42:00.542Z,12.00
2022-11-09T18:44:23.407Z,11.90
2022-11-09T18:46:46.442Z,11.90
2022-11-09T18:49:14.280Z,11.80
2022-11-09T18:51:40.031Z,11.70
2022-11-09T18:54:02.952Z,11.60
2022-11-09T18:56:26.683Z,11.60
2022-11-09T18:58:50.639Z,11.50
2022-11-09T19:01:13.582Z,11.50
2022-11-09T19:03:36.408Z,11.50
2022-11-09T19:06:01.024Z,11.50
2022-11-09T19:08:38.507Z,11.40
2022-11-09T19:11:06.146Z,11.40
2022-11-09T19:13:28.594Z,11.40
2022-11-09T19:15:54.327Z,11.30
2022-11-09T19:18:20.965Z,11.20
2022-11-09T19:20:44.197Z,11.30
2022-11-09T19:23:08.084Z,11.40
2022-11-09T19:25:30.527Z,11.40
2022-11-09T19:27:53.287Z,11.40
2022-11-09T19:30:15.831Z,11.40
2022-11-09T19:32:38.667Z,11.20
2022-11-09T19:35:01.420Z,11.20
2022-11-09T19:37:24.582Z,11.10
2022-11-09T19:39:49.621Z,11.10
2022-11-09T19:42:13.333Z,11.00
2022-11-09T19:44:36.446Z,11.10
2022-11-09T19:46:59.752Z,11.10
2022-11-09T19:49:23.119Z,11.00
2022-11-09T19:51:45.776Z,10.90
2022-11-09T19:54:09.729Z,10.90
2022-11-09T19:56:37.124Z,10.80
2022-11-09T19:59:02.252Z,10.90
2022-11-09T20:01:25.529Z,10.80
2022-11-09T20:03:50.923Z,10.90
2022-11-09T20:06:13.796Z,10.80
2022-11-09T20:08:37.787Z,10.70
2022-11-09T20:11:06.626Z,10.70
2022-11-09T20:13:29.923Z,10.60
2022-11-09T20:15:52.533Z,10.60
2022-11-09T20:18:15.918Z,10.60
2022-11-09T20:20:38.984Z,10.60
2022-11-09T20:23:02.310Z,10.80
2022-11-09T20:25:25.259Z,10.90
2022-11-09T20:27:48.013Z,10.90
2022-11-09T20:30:14.621Z,10.80
2022-11-09T20:32:37.693Z,10.70
2022-11-09T20:35:00.491Z,10.60
2022-11-09T20:37:23.331Z,10.60
2022-11-09T20:39:46.600Z,10.60
2022-11-09T20:42:09.605Z,10.50
2022-11-09T20:44:32.118Z,10.60
2022-11-09T20:46:56.586Z,10.60
2022-11-09T20:49:19.429Z,10.60
2022-11-09T20:51:42.545Z,10.50
2022-11-09T20:54:07.660Z,10.50
2022-11-09T20:56:31.049Z,10.50
2022-11-09T20:58:54.160Z,10.60
2022-11-09T21:01:20.123Z,10.60
2022-11-09T21:03:45.491Z,10.50
2022-11-09T21:06:09.753Z,10.50
2022-11-09T21:08:33.392Z,10.50
2022-11-09T21:10:56.782Z,10.60
2022-11-09T21:13:19.456Z,10.60
2022-11-09T21:15:42.162Z,10.50
2022-11-09T21:18:05.654Z,10.40
2022-11-09T21:20:30.802Z,10.30
2022-11-09T21:23:12.148Z,10.20
2022-11-09T21:25:55.479Z,10.00
2022-11-09T21:28:35.976Z,9.90
2022-11-09T21:31:02.107Z,9.90
2022-11-09T21:33:24.681Z,9.80
2022-11-09T21:35:48.859Z,9.80
2022-11-09T21:38:11.997Z,9.90
2022-11-09T21:40:35.349Z,9.90
2022-11-09T21:42:58.209Z,9.80
2022-11-09T21:45:21.161Z,9.80
2022-11-09T21:47:43.911Z,9.80
2022-11-09T21:50:12.334Z,9.80
2022-11-09T21:52:37.173Z,9.80
2022-11-09T21:54:59.734Z,9.80
2022-11-09T21:57:22.279Z,9.80
2022-11-09T21:59:45.259Z,9.80
2022-11-09T22:02:11.600Z,9.80
2022-11-09T22:04:34.389Z,9.70
2022-11-09T22:06:57.532Z,9.70
2022-11-09T22:09:21.733Z,9.60
2022-11-09T22:12:01.967Z,9.70
2022-11-09T22:14:41.533Z,9.70
2022-11-09T22:17:05.626Z,9.70
2022-11-09T22:19:50.956Z,9.70
2022-11-09T22:22:14.265Z,9.70
2022-11-09T22:24:38.488Z,9.70
2022-11-09T22:27:01.086Z,9.60
2022-11-09T22:29:24.548Z,9.50
2022-11-09T22:31:48.210Z,9.50
2022-11-09T22:34:11.253Z,9.50
2022-11-09T22:36:33.806Z,9.50
2022-11-09T22:38:57.934Z,9.40
2022-11-09T22:41:24.774Z,9.40
2022-11-09T22:43:48.179Z,9.40
2022-11-09T22:46:13.132Z,9.40
2022-11-09T22:48:37.446Z,9.40
2022-11-09T22:51:00.107Z,9.50
2022-11-09T22:53:23.177Z,9.40
2022-11-09T22:55:53.527Z,9.30
2022-11-09T22:58:18.204Z,9.30
2022-11-09T23:00:41.815Z,9.20
2022-11-09T23:03:05.506Z,9.10
2022-11-09T23:05:28.402Z,9.20
2022-11-09T23:07:51.212Z,9.20
2022-11-09T23:10:13.966Z,9.20
2022-11-09T23:12:37.428Z,9.10
2022-11-09T23:15:12.779Z,9.10
2022-11-09T23:17:54.294Z,9.20
2022-11-09T23:20:17.397Z,9.10
2022-11-09T23:22:40.263Z,9.10
2022-11-09T23:25:20.311Z,9.10
2022-11-09T23:27:42.994Z,9.10
2022-11-09T23:30:08.166Z,9.10
2022-11-09T23:32:30.839Z,9.20
2022-11-09T23:34:53.936Z,9.20
2022-11-09T23:37:17.261Z,9.20
2022-11-09T23:39:39.757Z,9.10
2022-11-09T23:42:03.539Z,8.90
2022-11-09T23:44:26.433Z,8.80
2022-11-09T23:46:51.193Z,8.70
2022-11-09T23:49:13.658Z,8.80
2022-11-09T23:51:36.412Z,8.80
2022-11-09T23:53:59.130Z,8.80
2022-11-09T23:56:22.211Z,8.70
2022-11-09T23:58:47.945Z,8.60
